• Join FlightAware (Why Join?)
  • Login
  • US Flag 
03:02PM EDT


 

Airport Tracker/Info


-or-


 

Live Flight TrackerFlight Track Log ✈ AAY1056 ✈ 08-May-2013 ✈ PHNL - KBLI

Flight Track Log - Related Links

Times and Time Zones

All times are in EDT time to prevent confusion due to time zone crossing. See the AAY1056 flight status page for this flight to view local times or setup timezone preferences in your user account.

Time Position Orientation Groundspeed Altitude Reporting Facility
EDT Latitude Longitude Course Direction KTS MPH feet Rate Location/Type
01:58PM 21.1850 -157.7350 109° East 291 335 8,200  Level FlightAware
01:58PM 21.1840 -157.6710 91° East 297 342 9,900 1,860 Climbing FlightAware
01:59PM 21.2070 -157.6020 70° East 329 379 11,000 1,980 Climbing FlightAware
02:00PM 21.2320 -157.5280 70° East 332 382 12,900 1,800 Climbing FlightAware
02:01PM 21.2670 -157.4750 55° Northeast 352 405 13,700 540 Climbing FlightAware
02:01PM 21.3220 -157.4380 32° Northeast 352 405 13,700 1,080 Level FlightAware
02:01PM 21.3700 -157.4450 352° North 388 447 14,700 2,160 Climbing FlightAware
02:02PM 21.4290 -157.4300 13° North 399 459 15,500 1,020 Climbing FlightAware
02:03PM 21.5360 -157.4020 14° North 406 467 16,400 1,200 Climbing FlightAware
02:04PM 21.6200 -157.3800 14° North 408 470 17,600 840 Climbing FlightAware
02:05PM 21.6820 -157.3630 14° North 408 470 17,600  Level FlightAware
02:05PM 21.7440 -157.3460 14° North 408 470 17,600  Level FlightAware
02:06PM 21.8060 -157.3300 13° North 408 470 17,600  Level FlightAware
02:07PM 21.8690 -157.3130 14° North 408 470 17,600  Level FlightAware
02:07PM 21.9310 -157.2960 14° North 408 470 17,600 6,300 Level FlightAware
02:07PM 22.0167 -157.2667 14° North 430 495 23,400 5,640 Climbing Honolulu Center
02:08PM 22.1500 -157.2333 13° North 450 518 24,700 1,380 Climbing Honolulu Center
02:09PM 22.2667 -157.2000 15° North 450 518 26,200 1,500 Climbing Honolulu Center
02:10PM 22.4000 -157.1667 13° North 470 541 27,800 1,320 Climbing Honolulu Center
02:11PM 22.5167 -157.1333 15° North 470 541 28,900 1,440 Climbing Honolulu Center
02:12PM 22.6500 -157.1000 13° North 480 552 30,700 1,680 Climbing Honolulu Center
02:13PM 22.7833 -157.0667 13° North 470 541 32,300 1,560 Climbing Honolulu Center
02:14PM 22.9000 -157.0333 15° North 480 552 33,900 1,500 Climbing Honolulu Center
02:15PM 23.0333 -157.0000 13° North 470 541 35,300 1,320 Climbing Honolulu Center
02:16PM 23.1667 -156.9500 19° North 460 529 36,600 840 Climbing Honolulu Center
02:17PM 23.2833 -156.9167 15° North 460 529 37,000 180 Climbing Honolulu Center
02:18PM 23.4167 -156.8833 13° North 460 529 37,000  Level Honolulu Center
02:19PM 23.5333 -156.8500 15° North 460 529 37,000  Level Honolulu Center
02:20PM 23.6667 -156.8167 13° North 470 541 37,000  Level Honolulu Center
02:21PM 23.7833 -156.7833 15° North 460 529 37,000  Level Honolulu Center
02:22PM 23.9167 -156.7500 13° North 460 529 37,000  Level Honolulu Center
02:24PM 24.0442 -156.7158 14° North  Level FlightAware Approximate
02:31PM 24.9223 -156.4787 14° North  Level FlightAware Approximate
02:32PM 25.0477 -156.4446 14° North  Level FlightAware Approximate
02:33PM 25.1738 -156.4167 North  Level FlightAware Approximate
02:34PM 25.2724 -156.3283 42° Northeast  Level FlightAware Approximate
02:35PM 25.3685 -156.2328 42° Northeast  Level FlightAware Approximate
02:36PM 25.4645 -156.1371 42° Northeast  Level FlightAware Approximate
02:36PM 25.2000 -156.4167 42° Northeast 494 568 37,000  Level Oakland Oceanic (ODAPS)
02:37PM 25.5604 -156.0413 42° Northeast  Level FlightAware Approximate
02:38PM 25.6563 -155.9454 42° Northeast  Level FlightAware Approximate
02:39PM 25.7521 -155.8492 42° Northeast  Level FlightAware Approximate
02:40PM 25.8479 -155.7529 42° Northeast  Level FlightAware Approximate
02:41PM 25.9436 -155.6565 42° Northeast  Level FlightAware Approximate
02:42PM 26.1174 -155.4977 42° Northeast 494 568 37,000  Level FlightAware Transoceanic
02:43PM 26.2190 -155.3947 42° Northeast 494 568 37,000  Level FlightAware Transoceanic
02:44PM 26.3205 -155.2915 42° Northeast 494 568 37,000  Level FlightAware Transoceanic
02:45PM 26.4219 -155.1882 42° Northeast 494 568 37,000  Level FlightAware Transoceanic
02:46PM 26.5233 -155.0846 42° Northeast 494 568 37,000  Level FlightAware Transoceanic
02:47PM 26.6246 -154.9809 43° Northeast 494 568 37,000  Level FlightAware Transoceanic
02:48PM 26.7258 -154.8770 43° Northeast 494 568 37,000  Level FlightAware Transoceanic
02:49PM 26.8269 -154.7729 43° Northeast 494 568 37,000  Level FlightAware Transoceanic
02:50PM 26.9279 -154.6687 43° Northeast 494 568 37,000  Level FlightAware Transoceanic
02:51PM 27.0289 -154.5642 43° Northeast 494 568 37,000  Level FlightAware Transoceanic
02:52PM 27.1298 -154.4596 43° Northeast 494 568 37,000  Level FlightAware Transoceanic
02:53PM 27.2306 -154.3547 43° Northeast 494 568 37,000  Level FlightAware Transoceanic
02:54PM 27.3314 -154.2497 43° Northeast 494 568 37,000  Level FlightAware Transoceanic
02:55PM 27.4321 -154.1445 43° Northeast 494 568 37,000  Level FlightAware Transoceanic
02:56PM 27.5326 -154.0391 43° Northeast 494 568 37,000  Level FlightAware Transoceanic
02:57PM 27.6331 -153.9335 43° Northeast 494 568 37,000  Level FlightAware Transoceanic
02:58PM 27.7336 -153.8277 43° Northeast 494 568 37,000  Level FlightAware Transoceanic
02:59PM 27.8339 -153.7217 43° Northeast 494 568 37,000  Level FlightAware Transoceanic
03:00PM 27.9342 -153.6155 43° Northeast 494 568 37,000  Level FlightAware Transoceanic
03:01PM 28.0343 -153.5091 43° Northeast 494 568 37,000  Level FlightAware Transoceanic
03:02PM 28.1345 -153.4025 43° Northeast 494 568 37,000  Level FlightAware Transoceanic
03:03PM 28.2345 -153.2958 43° Northeast 494 568 37,000  Level FlightAware Transoceanic
03:04PM 28.3344 -153.1888 43° Northeast 494 568 37,000  Level FlightAware Transoceanic
03:05PM 28.4342 -153.0816 43° Northeast 494 568 37,000  Level FlightAware Transoceanic
03:06PM 28.5340 -152.9742 43° Northeast 494 568 37,000  Level FlightAware Transoceanic
03:07PM 28.6337 -152.8666 43° Northeast 494 568 37,000  Level FlightAware Transoceanic
03:08PM 28.7333 -152.7588 44° Northeast 494 568 37,000  Level FlightAware Transoceanic
03:09PM 28.8328 -152.6508 44° Northeast 494 568 37,000  Level FlightAware Transoceanic
03:10PM 28.9322 -152.5426 44° Northeast 494 568 37,000  Level FlightAware Transoceanic
03:11PM 29.0316 -152.4342 44° Northeast 494 568 37,000  Level FlightAware Transoceanic
03:12PM 29.1308 -152.3256 44° Northeast 494 568 37,000  Level FlightAware Transoceanic
03:13PM 29.2300 -152.2168 44° Northeast 494 568 37,000  Level FlightAware Transoceanic
03:14PM 29.3291 -152.1077 44° Northeast 494 568 37,000  Level FlightAware Transoceanic
03:15PM 29.4280 -151.9985 44° Northeast 494 568 37,000  Level FlightAware Transoceanic
03:16PM 29.5269 -151.8890 44° Northeast 494 568 37,000  Level FlightAware Transoceanic
03:17PM 29.6257 -151.7793 44° Northeast 494 568 37,000  Level FlightAware Transoceanic
03:18PM 29.7245 -151.6694 44° Northeast 494 568 37,000  Level FlightAware Transoceanic
03:19PM 29.8231 -151.5593 44° Northeast 494 568 37,000  Level FlightAware Transoceanic
03:20PM 29.9216 -151.4490 44° Northeast 494 568 37,000  Level FlightAware Transoceanic
03:21PM 30.0201 -151.3384 44° Northeast 494 568 37,000  Level FlightAware Transoceanic
03:22PM 30.1184 -151.2277 44° Northeast 494 568 37,000  Level FlightAware Transoceanic
03:23PM 30.2167 -151.1167 44° Northeast 494 568 37,000  Level FlightAware Transoceanic
03:23PM 30.2167 -151.1167 44° Northeast 516 594 37,000  Level Oakland Oceanic (ODAPS)
03:24PM 30.3211 -150.9981 44° Northeast 494 568 37,000  Level FlightAware Transoceanic
03:25PM 30.4255 -150.8794 45° Northeast 494 568 37,000  Level FlightAware Transoceanic
03:26PM 30.5298 -150.7603 45° Northeast 494 568 37,000  Level FlightAware Transoceanic
03:27PM 30.6340 -150.6410 45° Northeast 494 568 37,000  Level FlightAware Transoceanic
03:28PM 30.7380 -150.5215 45° Northeast 494 568 37,000  Level FlightAware Transoceanic
03:29PM 30.8419 -150.4017 45° Northeast 494 568 37,000  Level FlightAware Transoceanic
03:30PM 31.0322 -150.1814 45° Northeast 516 594 37,000  Level FlightAware Transoceanic
03:31PM 31.1337 -150.0633 45° Northeast 516 594 37,000  Level FlightAware Transoceanic
03:32PM 31.2351 -149.9450 45° Northeast 516 594 37,000  Level FlightAware Transoceanic
03:33PM 31.3363 -149.8265 45° Northeast 516 594 37,000  Level FlightAware Transoceanic
03:34PM 31.4375 -149.7077 45° Northeast 516 594 37,000  Level FlightAware Transoceanic
03:35PM 31.5385 -149.5886 45° Northeast 516 594 37,000  Level FlightAware Transoceanic
03:36PM 31.6394 -149.4693 45° Northeast 516 594 37,000  Level FlightAware Transoceanic
03:37PM 31.7402 -149.3498 45° Northeast 516 594 37,000  Level FlightAware Transoceanic
03:38PM 31.8409 -149.2299 45° Northeast 516 594 37,000  Level FlightAware Transoceanic
03:39PM 31.9415 -149.1098 45° Northeast 516 594 37,000  Level FlightAware Transoceanic
03:40PM 32.0420 -148.9895 45° Northeast 516 594 37,000  Level FlightAware Transoceanic
03:41PM 32.1423 -148.8689 46° Northeast 516 594 37,000  Level FlightAware Transoceanic
03:42PM 32.2426 -148.7480 46° Northeast 516 594 37,000  Level FlightAware Transoceanic
03:43PM 32.3427 -148.6268 46° Northeast 516 594 37,000  Level FlightAware Transoceanic
03:44PM 32.4427 -148.5054 46° Northeast 516 594 37,000  Level FlightAware Transoceanic
03:45PM 32.5426 -148.3837 46° Northeast 516 594 37,000  Level FlightAware Transoceanic
03:46PM 32.6424 -148.2618 46° Northeast 516 594 37,000  Level FlightAware Transoceanic
03:47PM 32.7421 -148.1396 46° Northeast 516 594 37,000  Level FlightAware Transoceanic
03:48PM 32.8416 -148.0170 46° Northeast 516 594 37,000  Level FlightAware Transoceanic
03:49PM 32.9411 -147.8943 46° Northeast 516 594 37,000  Level FlightAware Transoceanic
03:50PM 33.0404 -147.7712 46° Northeast 516 594 37,000  Level FlightAware Transoceanic
03:51PM 33.1395 -147.6479 46° Northeast 516 594 37,000  Level FlightAware Transoceanic
03:52PM 33.2386 -147.5243 46° Northeast 516 594 37,000  Level FlightAware Transoceanic
03:53PM 33.3375 -147.4004 46° Northeast 516 594 37,000  Level FlightAware Transoceanic
03:54PM 33.4364 -147.2762 46° Northeast 516 594 37,000  Level FlightAware Transoceanic
03:55PM 33.5350 -147.1517 46° Northeast 516 594 37,000  Level FlightAware Transoceanic
03:56PM 33.6336 -147.0270 47° Northeast 516 594 37,000  Level FlightAware Transoceanic
03:57PM 33.7321 -146.9020 47° Northeast 516 594 37,000  Level FlightAware Transoceanic
03:58PM 33.8304 -146.7767 47° Northeast 516 594 37,000  Level FlightAware Transoceanic
03:59PM 33.9286 -146.6510 47° Northeast 516 594 37,000  Level FlightAware Transoceanic
04:00PM 34.0266 -146.5252 47° Northeast 516 594 37,000  Level FlightAware Transoceanic
04:01PM 34.1245 -146.3990 47° Northeast 516 594 37,000  Level FlightAware Transoceanic
04:02PM 34.2223 -146.2725 47° Northeast 516 594 37,000  Level FlightAware Transoceanic
04:03PM 34.3200 -146.1457 47° Northeast 516 594 37,000  Level FlightAware Transoceanic
04:04PM 34.4175 -146.0187 47° Northeast 516 594 37,000  Level FlightAware Transoceanic
04:05PM 34.5150 -145.8913 47° Northeast 516 594 37,000  Level FlightAware Transoceanic
04:06PM 34.6122 -145.7636 47° Northeast 516 594 37,000  Level FlightAware Transoceanic
04:07PM 34.7094 -145.6357 47° Northeast 516 594 37,000  Level FlightAware Transoceanic
04:08PM 34.8064 -145.5074 47° Northeast 516 594 37,000  Level FlightAware Transoceanic
04:09PM 34.9033 -145.3789 47° Northeast 516 594 37,000  Level FlightAware Transoceanic
04:09PM 35.0000 -145.2500 48° Northeast 544 626 37,000  Level Oakland Oceanic (ODAPS)
04:10PM 35.0000 -145.2500 48° Northeast 516 594 37,000  Level FlightAware Transoceanic
04:11PM 35.0962 -145.1212 48° Northeast 516 594 37,000  Level FlightAware Transoceanic
04:12PM 35.1922 -144.9920 48° Northeast 516 594 37,000  Level FlightAware Transoceanic
04:13PM 35.2881 -144.8626 48° Northeast 516 594 37,000  Level FlightAware Transoceanic
04:14PM 35.3838 -144.7328 48° Northeast 516 594 37,000  Level FlightAware Transoceanic
04:15PM 35.4794 -144.6028 48° Northeast 516 594 37,000  Level FlightAware Transoceanic
04:16PM 35.7110 -144.2856 48° Northeast 544 626 37,000  Level FlightAware Transoceanic
04:17PM 35.8120 -144.1464 48° Northeast 544 626 37,000  Level FlightAware Transoceanic
04:18PM 35.9128 -144.0069 48° Northeast 544 626 37,000  Level FlightAware Transoceanic
04:19PM 36.0134 -143.8670 48° Northeast 544 626 37,000  Level FlightAware Transoceanic
04:20PM 36.1138 -143.7268 48° Northeast 544 626 37,000  Level FlightAware Transoceanic
04:21PM 36.2141 -143.5862 49° Northeast 544 626 37,000  Level FlightAware Transoceanic
04:22PM 36.3143 -143.4452 49° Northeast 544 626 37,000  Level FlightAware Transoceanic
04:23PM 36.4142 -143.3039 49° Northeast 544 626 37,000  Level FlightAware Transoceanic
04:24PM 36.5140 -143.1622 49° Northeast 544 626 37,000  Level FlightAware Transoceanic
04:25PM 36.6136 -143.0202 49° Northeast 544 626 37,000  Level FlightAware Transoceanic
04:26PM 36.7131 -142.8778 49° Northeast 544 626 37,000  Level FlightAware Transoceanic
04:27PM 36.8124 -142.7350 49° Northeast 544 626 37,000  Level FlightAware Transoceanic
04:28PM 36.9115 -142.5918 49° Northeast 544 626 37,000  Level FlightAware Transoceanic
04:29PM 37.0105 -142.4483 49° Northeast 544 626 37,000  Level FlightAware Transoceanic
04:30PM 37.1092 -142.3044 49° Northeast 544 626 37,000  Level FlightAware Transoceanic
04:31PM 37.2078 -142.1601 49° Northeast 544 626 37,000  Level FlightAware Transoceanic
04:32PM 37.3063 -142.0155 50° Northeast 544 626 37,000  Level FlightAware Transoceanic
04:33PM 37.4045 -141.8704 50° Northeast 544 626 37,000  Level FlightAware Transoceanic
04:34PM 37.5026 -141.7250 50° Northeast 544 626 37,000  Level FlightAware Transoceanic
04:35PM 37.6005 -141.5792 50° Northeast 544 626 37,000  Level FlightAware Transoceanic
04:36PM 37.6982 -141.4330 50° Northeast 544 626 37,000  Level FlightAware Transoceanic
04:37PM 37.7957 -141.2865 50° Northeast 544 626 37,000  Level FlightAware Transoceanic
04:38PM 37.8931 -141.1395 50° Northeast 544 626 37,000  Level FlightAware Transoceanic
04:39PM 37.9902 -140.9922 50° Northeast 544 626 37,000  Level FlightAware Transoceanic
04:40PM 38.0872 -140.8445 50° Northeast 544 626 37,000  Level FlightAware Transoceanic
04:41PM 38.1840 -140.6963 50° Northeast 544 626 37,000  Level FlightAware Transoceanic
04:42PM 38.2806 -140.5478 50° Northeast 544 626 37,000  Level FlightAware Transoceanic
04:43PM 38.3770 -140.3989 51° Northeast 544 626 37,000  Level FlightAware Transoceanic
04:44PM 38.4733 -140.2496 51° Northeast 544 626 37,000  Level FlightAware Transoceanic
04:45PM 38.5693 -140.0999 51° Northeast 544 626 37,000  Level FlightAware Transoceanic
04:46PM 38.6651 -139.9498 51° Northeast 544 626 37,000  Level FlightAware Transoceanic
04:47PM 38.7608 -139.7993 51° Northeast 544 626 37,000  Level FlightAware Transoceanic
04:48PM 38.8563 -139.6484 51° Northeast 544 626 37,000  Level FlightAware Transoceanic
04:49PM 38.9515 -139.4970 51° Northeast 544 626 37,000  Level FlightAware Transoceanic
04:50PM 39.0466 -139.3453 51° Northeast 544 626 37,000  Level FlightAware Transoceanic
04:51PM 39.1415 -139.1932 51° Northeast 544 626 37,000  Level FlightAware Transoceanic
04:52PM 39.2362 -139.0406 51° Northeast 544 626 37,000  Level FlightAware Transoceanic
04:53PM 39.3306 -138.8877 51° Northeast 544 626 37,000  Level FlightAware Transoceanic
04:54PM 39.4249 -138.7343 52° Northeast 544 626 37,000  Level FlightAware Transoceanic
04:55PM 39.5190 -138.5805 52° Northeast 544 626 37,000  Level FlightAware Transoceanic
04:56PM 39.6129 -138.4263 52° Northeast 544 626 37,000  Level FlightAware Transoceanic
04:57PM 39.7065 -138.2717 52° Northeast 544 626 37,000  Level FlightAware Transoceanic
04:58PM 39.8000 -138.1167 52° Northeast 544 626 37,000  Level FlightAware Transoceanic
04:59PM 39.8802 -137.9832 52° Northeast 544 626 37,000  Level FlightAware Transoceanic
05:00PM 39.9602 -137.8495 52° Northeast 544 626 37,000 540 Level FlightAware Transoceanic
05:00PM 39.8000 -138.1167 52° Northeast 505 581 38,000  Climbing Oakland Oceanic (ODAPS)
05:01PM 40.0400 -137.7154 52° Northeast 544 626 37,000 -900 Descending FlightAware Transoceanic
05:02PM 40.1197 -137.5810 52° Northeast 544 626 37,000  Level FlightAware Transoceanic
05:03PM 40.1993 -137.4463 52° Northeast 544 626 37,000  Level FlightAware Transoceanic
05:04PM 40.2787 -137.3112 52° Northeast 544 626 37,000  Level FlightAware Transoceanic
05:05PM 40.3579 -137.1759 53° Northeast 544 626 37,000  Level FlightAware Transoceanic
05:06PM 40.4370 -137.0402 53° Northeast 544 626 37,000 480 Level FlightAware Transoceanic
05:07PM 40.3997 -137.1043 53° Northeast 505 581 38,000 480 Climbing FlightAware Transoceanic
05:08PM 40.4846 -136.9582 53° Northeast 505 581 38,000  Level FlightAware Transoceanic
05:09PM 40.5694 -136.8117 53° Northeast 505 581 38,000  Level FlightAware Transoceanic
05:10PM 40.6540 -136.6649 53° Northeast 505 581 38,000  Level FlightAware Transoceanic
05:11PM 40.7383 -136.5177 53° Northeast 505 581 38,000  Level FlightAware Transoceanic
05:12PM 40.8226 -136.3701 53° Northeast 505 581 38,000  Level FlightAware Transoceanic
05:13PM 40.9066 -136.2221 53° Northeast 505 581 38,000  Level FlightAware Transoceanic
05:14PM 40.9904 -136.0738 53° Northeast 505 581 38,000  Level FlightAware Transoceanic
05:15PM 41.0740 -135.9251 53° Northeast 505 581 38,000  Level FlightAware Transoceanic
05:16PM 41.1575 -135.7760 53° Northeast 505 581 38,000  Level FlightAware Transoceanic
05:17PM 41.2407 -135.6265 54° Northeast 505 581 38,000  Level FlightAware Transoceanic
05:18PM 41.3238 -135.4767 54° Northeast 505 581 38,000  Level FlightAware Transoceanic
05:19PM 41.4066 -135.3265 54° Northeast 505 581 38,000  Level FlightAware Transoceanic
05:20PM 41.4893 -135.1759 54° Northeast 505 581 38,000  Level FlightAware Transoceanic
05:21PM 41.5718 -135.0249 54° Northeast 505 581 38,000  Level FlightAware Transoceanic
05:22PM 41.6540 -134.8735 54° Northeast 505 581 38,000  Level FlightAware Transoceanic
05:23PM 41.7361 -134.7217 54° Northeast 505 581 38,000  Level FlightAware Transoceanic
05:24PM 41.8180 -134.5695 54° Northeast 505 581 38,000  Level FlightAware Transoceanic
05:25PM 41.8996 -134.4170 54° Northeast 505 581 38,000  Level FlightAware Transoceanic
05:26PM 41.9811 -134.2641 54° Northeast 505 581 38,000  Level FlightAware Transoceanic
05:27PM 42.0623 -134.1107 55° Northeast 505 581 38,000  Level FlightAware Transoceanic
05:28PM 42.1434 -133.9570 55° Northeast 505 581 38,000  Level FlightAware Transoceanic
05:29PM 42.2243 -133.8029 55° Northeast 505 581 38,000  Level FlightAware Transoceanic
05:30PM 42.3049 -133.6484 55° Northeast 505 581 38,000  Level FlightAware Transoceanic
05:31PM 42.3853 -133.4935 55° Northeast 505 581 38,000  Level FlightAware Transoceanic
05:32PM 42.4656 -133.3382 55° Northeast 505 581 38,000  Level FlightAware Transoceanic
05:33PM 42.5456 -133.1825 55° Northeast 505 581 38,000  Level FlightAware Transoceanic
05:34PM 42.6254 -133.0264 55° Northeast 505 581 38,000  Level FlightAware Transoceanic
05:35PM 42.7050 -132.8699 55° Northeast 505 581 38,000  Level FlightAware Transoceanic
05:36PM 42.7844 -132.7130 55° Northeast 505 581 38,000  Level FlightAware Transoceanic
05:37PM 42.8635 -132.5557 56° Northeast 505 581 38,000  Level FlightAware Transoceanic
05:38PM 42.9425 -132.3980 56° Northeast 505 581 38,000  Level FlightAware Transoceanic
05:39PM 43.0212 -132.2399 56° Northeast 505 581 38,000  Level FlightAware Transoceanic
05:40PM 43.0997 -132.0814 56° Northeast 505 581 38,000  Level FlightAware Transoceanic
05:41PM 43.1780 -131.9225 56° Northeast 505 581 38,000  Level FlightAware Transoceanic
05:42PM 43.2561 -131.7631 56° Northeast 505 581 38,000  Level FlightAware Transoceanic
05:43PM 43.3339 -131.6034 56° Northeast 505 581 38,000  Level FlightAware Transoceanic
05:44PM 43.4116 -131.4432 56° Northeast 505 581 38,000  Level FlightAware Transoceanic
05:45PM 43.4890 -131.2827 56° Northeast 505 581 38,000  Level FlightAware Transoceanic
05:46PM 43.5662 -131.1217 57° Northeast 505 581 38,000  Level FlightAware Transoceanic
05:47PM 43.6431 -130.9603 57° Northeast 505 581 38,000  Level FlightAware Transoceanic
05:48PM 43.7198 -130.7985 57° Northeast 505 581 38,000  Level FlightAware Transoceanic
05:49PM 43.7963 -130.6363 57° Northeast 505 581 38,000  Level FlightAware Transoceanic
05:50PM 43.8726 -130.4737 57° Northeast 505 581 38,000  Level FlightAware Transoceanic
05:51PM 43.9486 -130.3107 57° Northeast 505 581 38,000  Level FlightAware Transoceanic
05:52PM 44.0244 -130.1472 57° Northeast 505 581 38,000  Level FlightAware Transoceanic
05:53PM 44.1000 -129.9833 58° Northeast 505 581 38,000  Level FlightAware Transoceanic
05:54PM 44.1656 -129.8383 58° Northeast 505 581 38,000  Level FlightAware Transoceanic
05:55PM 44.2311 -129.6929 58° Northeast 505 581 38,000  Level FlightAware Transoceanic
05:56PM 44.2963 -129.5472 58° Northeast 505 581 38,000  Level FlightAware Transoceanic
05:57PM 44.3614 -129.4012 58° Northeast 505 581 38,000  Level FlightAware Transoceanic
05:58PM 44.4263 -129.2548 58° Northeast 505 581 38,000  Level FlightAware Transoceanic
05:59PM 44.4910 -129.1081 58° Northeast 505 581 38,000  Level FlightAware Transoceanic
06:00PM 44.5555 -128.9611 58° Northeast 505 581 38,000  Level FlightAware Transoceanic
06:01PM 44.6198 -128.8138 59° Northeast 505 581 38,000  Level FlightAware Transoceanic
06:02PM 44.6839 -128.6661 59° Northeast 505 581 38,000  Level FlightAware Transoceanic
06:02PM 44.4140 -129.2910 59° Northeast 428 493 38,000  Level FlightAware
06:03PM 44.7479 -128.5181 59° Northeast 505 581 38,000  Level FlightAware Transoceanic
06:03PM 44.4550 -129.2000 58° Northeast 427 491 38,000  Level FlightAware
06:03PM 44.5020 -129.0950 58° Northeast 426 490 38,000  Level FlightAware
06:04PM 44.5440 -128.9990 58° Northeast 425 489 38,000  Level FlightAware
06:05PM 44.5860 -128.9040 58° Northeast 425 489 38,000  Level FlightAware
06:05PM 44.1000 -129.9833 58° Northeast 444 511 38,000  Level Oakland Oceanic (ODAPS)
06:05PM 44.6260 -128.8120 59° Northeast 426 490 38,000  Level FlightAware
06:06PM 44.6730 -128.7060 58° Northeast 426 490 38,000  Level FlightAware
06:07PM 44.7190 -128.5990 59° Northeast 427 491 38,000  Level FlightAware
06:08PM 44.7600 -128.5040 59° Northeast 427 491 38,000  Level FlightAware
06:08PM 44.8020 -128.4070 59° Northeast 428 493 38,000  Level FlightAware
06:09PM 44.8490 -128.2990 58° Northeast 428 493 38,000  Level FlightAware
06:10PM 44.8900 -128.2030 59° Northeast 428 493 38,000  Level FlightAware
06:10PM 44.9360 -128.0970 58° Northeast 428 493 38,000  Level FlightAware
06:11PM 44.9760 -128.0020 59° Northeast 427 491 38,000  Level FlightAware
06:12PM 45.0160 -127.9080 59° Northeast 427 491 38,000  Level FlightAware
06:13PM 45.0650 -127.7950 58° Northeast 427 491 38,000  Level FlightAware
06:13PM 45.1040 -127.7020 59° Northeast 427 491 38,000  Level FlightAware
06:14PM 45.1460 -127.6040 59° Northeast 427 491 38,000  Level FlightAware
06:15PM 45.1900 -127.5000 59° Northeast 427 491 38,000  Level FlightAware
06:15PM 45.2310 -127.4010 60° Northeast 427 491 38,000  Level FlightAware
06:16PM 45.2770 -127.2910 59° Northeast 428 493 38,000  Level FlightAware
06:17PM 45.3170 -127.1950 59° Northeast 427 491 38,000  Level FlightAware
06:17PM 45.3570 -127.0970 60° Northeast 427 491 38,000  Level FlightAware
06:18PM 45.4010 -126.9900 60° Northeast 426 490 38,000  Level FlightAware
06:19PM 45.4420 -126.8910 59° Northeast 427 491 38,000  Level FlightAware
06:20PM 45.4850 -126.7850 60° Northeast 426 490 38,000  Level FlightAware
06:20PM 45.5280 -126.6890 57° Northeast 429 494 38,000  Level FlightAware
06:21PM 45.5780 -126.6020 51° Northeast 429 494 38,000  Level FlightAware
06:22PM 45.6350 -126.5020 51° Northeast 430 495 38,000  Level FlightAware
06:22PM 45.6860 -126.4130 51° Northeast 430 495 38,000  Level FlightAware
06:23PM 45.7350 -126.3290 50° Northeast 432 497 38,000  Level FlightAware
06:24PM 45.7930 -126.2290 50° Northeast 434 499 38,000  Level FlightAware
06:24PM 45.8450 -126.1380 51° Northeast 435 501 38,000  Level FlightAware
06:25PM 45.9040 -126.0350 51° Northeast 437 503 38,000  Level FlightAware
06:26PM 45.9480 -125.9590 50° Northeast 437 503 38,000  Level FlightAware
06:26PM 45.9980 -125.8700 51° Northeast 437 503 38,000  Level FlightAware
06:27PM 46.0500 -125.7790 51° Northeast 437 503 38,000  Level FlightAware
06:28PM 46.1080 -125.6760 51° Northeast 437 503 38,000  Level FlightAware
06:28PM 46.1590 -125.5850 51° Northeast 436 502 38,000  Level FlightAware
06:29PM 46.2100 -125.4940 51° Northeast 436 502 38,000  Level FlightAware
06:30PM 46.2650 -125.3950 51° Northeast 436 502 38,000  Level FlightAware
06:31PM 46.3160 -125.3030 51° Northeast 436 502 38,000  Level FlightAware
06:31PM 46.3740 -125.1990 51° Northeast 436 502 38,000  Level FlightAware
06:32PM 46.4250 -125.1080 51° Northeast 436 502 38,000  Level FlightAware
06:33PM 46.4780 -125.0220 48° Northeast 436 502 38,000  Level FlightAware
06:33PM 46.5340 -124.9200 51° Northeast 435 501 38,000  Level FlightAware
06:34PM 46.5840 -124.8280 52° Northeast 436 502 38,000  Level FlightAware
06:35PM 46.6410 -124.7230 52° Northeast 437 503 38,000  Level FlightAware
06:35PM 46.6890 -124.6340 52° Northeast 437 503 38,000  Level FlightAware
06:36PM 46.7450 -124.5310 52° Northeast 432 497 38,000  Level FlightAware
06:37PM 46.8090 -124.4110 52° Northeast 434 499 38,000  Level FlightAware
06:38PM 46.8550 -124.3260 52° Northeast 438 504 38,000  Level FlightAware
06:38PM 46.9110 -124.2210 52° Northeast 439 505 38,000  Level FlightAware
06:39PM 46.9790 -124.0950 52° Northeast 439 505 38,000  Level FlightAware
06:40PM 47.0370 -123.9860 52° Northeast 439 505 38,000  Level FlightAware
06:41PM 47.0860 -123.8950 52° Northeast 439 505 38,000  Level FlightAware
06:41PM 47.1370 -123.7990 52° Northeast 440 506 38,000  Level FlightAware
06:42PM 47.1930 -123.6940 52° Northeast 434 499 38,000  Level FlightAware
06:43PM 47.2610 -123.5640 52° Northeast 435 501 38,000  Level FlightAware
06:44PM 47.3120 -123.4680 52° Northeast 435 501 38,000  Level FlightAware
06:45PM 47.3670 -123.3620 53° Northeast 435 501 38,000 -780 Level FlightAware
06:45PM 47.4120 -123.2770 52° Northeast 445 512 37,000 -2,100 Descending FlightAware
06:46PM 47.4660 -123.1720 53° Northeast 449 517 35,200 -2,760 Descending FlightAware
06:47PM 47.5240 -123.0590 53° Northeast 453 521 32,900 -3,180 Descending FlightAware
06:47PM 47.5810 -122.9470 53° Northeast 456 525 30,500 -3,060 Descending FlightAware
06:48PM 47.6330 -122.8450 53° Northeast 451 519 28,600 -2,820 Descending FlightAware
06:49PM 47.6870 -122.7500 50° Northeast 435 501 26,800 -2,580 Descending FlightAware
06:49PM 47.7650 -122.6910 27° Northeast 431 496 25,000 -2,520 Descending FlightAware
06:50PM 47.8430 -122.6610 14° North 415 478 23,300 -2,580 Descending FlightAware
06:51PM 47.9280 -122.6280 15° North 414 476 21,400 -2,700 Descending FlightAware
06:52PM 48.0010 -122.5990 15° North 413 475 19,500 -3,480 Descending FlightAware
06:52PM 48.0780 -122.5690 15° North 418 481 16,800 -3,300 Descending FlightAware
06:53PM 48.1610 -122.5360 15° North 402 463 14,900 -2,700 Descending FlightAware
06:54PM 48.2330 -122.5060 16° North 399 459 13,000 -2,880 Descending FlightAware
06:54PM 48.3110 -122.4740 15° North 385 443 10,900 -2,100 Descending FlightAware
06:55PM 48.3800 -122.4450 16° North 348 400 10,100 -960 Descending FlightAware
06:56PM 48.4260 -122.4270 15° North 321 369 9,800 -240 Descending FlightAware
06:56PM 48.4620 -122.4140 13° North 288 331 9,900 -240 Climbing FlightAware
06:56PM 48.5030 -122.4190 355° North 273 314 9,600 -840 Descending FlightAware
06:57PM 48.5220 -122.4250 348° North 271 312 9,300 -1,500 Descending FlightAware
06:57PM 48.5530 -122.4360 347° North 270 311 8,600 -1,800 Descending FlightAware
06:58PM 48.5890 -122.4460 350° North 269 310 7,700 -1,500 Descending FlightAware
06:58PM 48.5990 -122.4460 360° North 269 310 7,600 -1,200 Descending FlightAware
06:58PM 48.6440 -122.4460 360° North 266 306 6,800 -1,200 Descending FlightAware
06:59PM 48.6840 -122.4440 North 262 302 6,300 -1,200 Descending FlightAware
06:59PM 48.6950 -122.4430 North 262 302 6,000 -1,560 Descending FlightAware
06:59PM 48.7250 -122.4420 North 264 304 5,400 -1,440 Descending FlightAware
07:00PM 48.7660 -122.4410 North 260 299 4,600 -1,320 Descending FlightAware
07:00PM 48.7970 -122.4410 360° North 243 280 4,100 -1,440 Descending FlightAware
07:01PM 48.8290 -122.4400 North 227 261 3,300 -1,320 Descending FlightAware
07:01PM 48.8520 -122.4390 North 216 249 2,900 -600 Descending FlightAware
07:02PM 48.8810 -122.4380 North 190 219 2,800 -180 Descending FlightAware
07:02PM 48.8950 -122.4400 355° North 177 204 2,800 -420 Level FlightAware
07:02PM 48.9050 -122.4520 322° Northwest 172 198 2,600 -960 Descending FlightAware
07:03PM 48.9070 -122.4630 285° West 174 200 2,400 -1,080 Descending FlightAware
07:03PM 48.9060 -122.5060 268° West 184 212 1,800 -840 Descending FlightAware
07:03PM 48.8990 -122.5220 236° Southwest 178 205 1,700 -840 Descending FlightAware
07:04PM 48.8890 -122.5270 198° South 172 198 1,400 -780 Descending FlightAware
07:04PM 48.8690 -122.5210 169° South 147 169 1,200 -780 Descending FlightAware
07:05PM 48.8510 -122.5220 182° South 127 146 700 -840 Descending FlightAware
07:05PM 48.8340 -122.5220 180° South 120 138 400 -660 Descending FlightAware
07:05PM 48.8210 -122.5230 183° South 121 139 100 -720 Descending FlightAware
07:06PM 48.8020 -122.5230 180° South 119 137 -180 Descending FlightAware